YMLT METAR and TAF | Updated Today

YMLT METAR

Launceston Airport

Observation time: 31 min. ago

YMLT 292030Z AUTO 00000KT 9999 // NCD 02/01 Q1034 RF00.0/000.0

Need help? Read our tutorial on how to read METARs or read the parsed version below.

Launceston Airport (YMLT) METAR

  • Weather conditions on Thu, 29 Sep 2022 20:30:00 +0000 (31 min. ago):
  • Present conditions: Dry
  • Clouds: Nil cloud detected
  • Visibility: Greater than 10 km
  • Wind: Calm
  • Temperature: 2 celsius
  • Dew point: 1 celsius
  • Pressure: 1034 millibars
  • Remarks: None


Useful to know...

YMLT TAF

Launceston Airport

TAF YMLT 291703Z 2918/3018 16013KT CAVOK FM300500 VRB03KT CAVOK FM301200 15008KT CAVOK
Observation time: 3:58 hr. ago
Need help? Read our tutorial on how to read TAFs or read the parsed version below.

Parsed version of TAF for Launceston Airport (YMLT)

  • From 29 September at 18:00 UTC, to day 30 of the month at 18:00 UTC
  • Visibility: Greater than 10 km
  • Wind: 160 degrees at 13
  • From day 30 of the month at 05:00 UTC
  • Visibility: Greater than 10 km
  • Wind: Variable at 3
  • From day 30 of the month at 12:00 UTC
  • Visibility: Greater than 10 km
  • Wind: 150 degrees at 8

Airports near YMLT

No airports found within 100nm radius.